sensor_id;sensor_type;location;lat;lon;timestamp;pressure;altitude;pressure_sealevel;temperature;humidity
63321;BME280;49449;48.800;9.534;2023-05-21T00:01:39;98145.44;;;16.16;40.25
63321;BME280;49449;48.800;9.534;2023-05-21T00:04:09;98142.78;;;16.11;40.11
63321;BME280;49449;48.800;9.534;2023-05-21T00:06:38;98137.72;;;16.09;40.51
63321;BME280;49449;48.800;9.534;2023-05-21T00:09:06;98137.97;;;16.13;40.23
63321;BME280;49449;48.800;9.534;2023-05-21T00:11:34;98142.25;;;16.14;40.21
63321;BME280;49449;48.800;9.534;2023-05-21T00:14:02;98135.84;;;16.15;40.40
63321;BME280;49449;48.800;9.534;2023-05-21T00:16:30;98132.16;;;16.06;40.68
63321;BME280;49449;48.800;9.534;2023-05-21T00:18:58;98132.16;;;15.96;40.75
63321;BME280;49449;48.800;9.534;2023-05-21T00:21:27;98125.75;;;16.02;40.56
63321;BME280;49449;48.800;9.534;2023-05-21T00:23:55;98122.56;;;16.00;40.58
63321;BME280;49449;48.800;9.534;2023-05-21T00:26:23;98127.91;;;16.00;40.53
63321;BME280;49449;48.800;9.534;2023-05-21T00:28:50;98120.19;;;15.93;40.50
63321;BME280;49449;48.800;9.534;2023-05-21T00:31:18;98121.56;;;15.85;41.07
63321;BME280;49449;48.800;9.534;2023-05-21T00:33:47;98119.19;;;15.79;40.97
63321;BME280;49449;48.800;9.534;2023-05-21T00:36:15;98110.13;;;15.75;40.96
63321;BME280;49449;48.800;9.534;2023-05-21T00:38:44;98114.94;;;15.72;41.12
63321;BME280;49449;48.800;9.534;2023-05-21T00:41:12;98113.66;;;15.65;41.54
63321;BME280;49449;48.800;9.534;2023-05-21T00:43:40;98112.31;;;15.62;41.49
63321;BME280;49449;48.800;9.534;2023-05-21T00:46:09;98110.75;;;15.56;41.70
63321;BME280;49449;48.800;9.534;2023-05-21T00:48:39;98103.81;;;15.55;41.38
63321;BME280;49449;48.800;9.534;2023-05-21T00:51:07;98102.75;;;15.61;41.36
63321;BME280;49449;48.800;9.534;2023-05-21T00:53:35;98108.34;;;15.55;41.66
63321;BME280;49449;48.800;9.534;2023-05-21T00:56:05;98107.31;;;15.50;42.02
63321;BME280;49449;48.800;9.534;2023-05-21T00:58:33;98097.72;;;15.49;41.46
63321;BME280;49449;48.800;9.534;2023-05-21T01:01:02;98098.53;;;15.45;41.85
63321;BME280;49449;48.800;9.534;2023-05-21T01:03:32;98102.53;;;15.37;41.86
63321;BME280;49449;48.800;9.534;2023-05-21T01:06:04;98100.66;;;15.38;41.92
63321;BME280;49449;48.800;9.534;2023-05-21T01:08:32;98102.00;;;15.40;42.15
63321;BME280;49449;48.800;9.534;2023-05-21T01:11:01;98098.81;;;15.43;42.18
63321;BME280;49449;48.800;9.534;2023-05-21T01:13:32;98103.56;;;15.41;41.84
63321;BME280;49449;48.800;9.534;2023-05-21T01:16:01;98103.06;;;15.39;42.18
63321;BME280;49449;48.800;9.534;2023-05-21T01:18:32;98101.75;;;15.31;42.03
63321;BME280;49449;48.800;9.534;2023-05-21T01:21:01;98096.94;;;15.23;42.56
63321;BME280;49449;48.800;9.534;2023-05-21T01:23:30;98102.81;;;15.20;42.59
63321;BME280;49449;48.800;9.534;2023-05-21T01:25:58;98096.94;;;15.28;41.97
63321;BME280;49449;48.800;9.534;2023-05-21T01:28:26;98103.09;;;15.29;42.10
63321;BME280;49449;48.800;9.534;2023-05-21T01:30:56;98101.19;;;15.24;42.41
63321;BME280;49449;48.800;9.534;2023-05-21T01:33:29;98103.09;;;15.29;42.00
63321;BME280;49449;48.800;9.534;2023-05-21T01:36:01;98102.53;;;15.32;42.11
63321;BME280;49449;48.800;9.534;2023-05-21T01:38:38;98108.63;;;15.38;41.86
63321;BME280;49449;48.800;9.534;2023-05-21T01:41:10;98099.31;;;15.45;41.66
63321;BME280;49449;48.800;9.534;2023-05-21T01:43:43;98100.13;;;15.41;42.02
63321;BME280;49449;48.800;9.534;2023-05-21T01:46:14;98094.56;;;15.27;42.39
63321;BME280;49449;48.800;9.534;2023-05-21T01:48:43;98099.88;;;15.27;42.15
63321;BME280;49449;48.800;9.534;2023-05-21T01:51:11;98106.81;;;15.33;42.05
63321;BME280;49449;48.800;9.534;2023-05-21T01:53:41;98103.88;;;15.34;42.23
63321;BME280;49449;48.800;9.534;2023-05-21T01:56:09;98099.34;;;15.30;42.24
63321;BME280;49449;48.800;9.534;2023-05-21T01:58:38;98098.53;;;15.24;42.30
63321;BME280;49449;48.800;9.534;2023-05-21T02:01:05;98096.16;;;15.18;42.38
63321;BME280;49449;48.800;9.534;2023-05-21T02:03:34;98097.75;;;15.13;42.59
63321;BME280;49449;48.800;9.534;2023-05-21T02:06:02;98092.97;;;15.15;42.26
63321;BME280;49449;48.800;9.534;2023-05-21T02:08:30;98090.56;;;15.14;42.45
63321;BME280;49449;48.800;9.534;2023-05-21T02:11:00;98093.75;;;15.16;42.31
63321;BME280;49449;48.800;9.534;2023-05-21T02:13:27;98088.16;;;15.18;42.40
63321;BME280;49449;48.800;9.534;2023-05-21T02:15:55;98083.63;;;15.23;42.29
63321;BME280;49449;48.800;9.534;2023-05-21T02:18:23;98090.81;;;15.23;42.17
63321;BME280;49449;48.800;9.534;2023-05-21T02:20:51;98094.00;;;15.20;42.54
63321;BME280;49449;48.800;9.534;2023-05-21T02:23:19;98090.03;;;15.17;42.74
63321;BME280;49449;48.800;9.534;2023-05-21T02:25:47;98090.56;;;15.14;42.72
63321;BME280;49449;48.800;9.534;2023-05-21T02:28:16;98088.97;;;15.13;42.43
63321;BME280;49449;48.800;9.534;2023-05-21T02:30:45;98097.22;;;15.17;42.48
63321;BME280;49449;48.800;9.534;2023-05-21T02:33:14;98080.19;;;15.07;42.69
63321;BME280;49449;48.800;9.534;2023-05-21T02:35:42;98083.13;;;15.06;42.81
63321;BME280;49449;48.800;9.534;2023-05-21T02:38:10;98083.41;;;15.04;42.76
63321;BME280;49449;48.800;9.534;2023-05-21T02:40:39;98085.00;;;15.05;43.01
63321;BME280;49449;48.800;9.534;2023-05-21T02:43:06;98081.81;;;14.98;42.85
63321;BME280;49449;48.800;9.534;2023-05-21T02:45:35;98087.66;;;14.95;43.20
63321;BME280;49449;48.800;9.534;2023-05-21T02:48:03;98078.09;;;14.99;42.80
63321;BME280;49449;48.800;9.534;2023-05-21T02:50:31;98078.34;;;15.03;42.67
63321;BME280;49449;48.800;9.534;2023-05-21T02:52:59;98080.50;;;15.01;43.02
63321;BME280;49449;48.800;9.534;2023-05-21T02:55:27;98077.00;;;15.00;42.85
63321;BME280;49449;48.800;9.534;2023-05-21T02:57:55;98079.41;;;14.96;42.79
63321;BME280;49449;48.800;9.534;2023-05-21T03:00:23;98069.84;;;14.95;42.82
63321;BME280;49449;48.800;9.534;2023-05-21T03:02:52;98069.03;;;14.90;42.98
63321;BME280;49449;48.800;9.534;2023-05-21T03:05:20;98073.56;;;14.84;43.26
63321;BME280;49449;48.800;9.534;2023-05-21T03:07:47;98078.34;;;14.77;43.57
63321;BME280;49449;48.800;9.534;2023-05-21T03:10:15;98075.69;;;14.87;43.22
63321;BME280;49449;48.800;9.534;2023-05-21T03:12:43;98074.91;;;14.87;43.21
63321;BME280;49449;48.800;9.534;2023-05-21T03:15:11;98075.16;;;14.85;43.23
63321;BME280;49449;48.800;9.534;2023-05-21T03:17:40;98070.63;;;14.81;43.38
63321;BME280;49449;48.800;9.534;2023-05-21T03:20:11;98071.47;;;14.76;43.45
63321;BME280;49449;48.800;9.534;2023-05-21T03:22:41;98073.03;;;14.67;43.70
63321;BME280;49449;48.800;9.534;2023-05-21T03:25:09;98079.94;;;14.63;43.65
63321;BME280;49449;48.800;9.534;2023-05-21T03:27:38;98077.03;;;14.64;43.83
63321;BME280;49449;48.800;9.534;2023-05-21T03:30:06;98074.38;;;14.69;43.42
63321;BME280;49449;48.800;9.534;2023-05-21T03:32:34;98074.66;;;14.73;43.25
63321;BME280;49449;48.800;9.534;2023-05-21T03:35:04;98062.94;;;14.69;43.35
63321;BME280;49449;48.800;9.534;2023-05-21T03:37:34;98061.34;;;14.68;43.71
63321;BME280;49449;48.800;9.534;2023-05-21T03:40:02;98075.69;;;14.67;43.45
63321;BME280;49449;48.800;9.534;2023-05-21T03:42:30;98063.75;;;14.69;43.56
63321;BME280;49449;48.800;9.534;2023-05-21T03:44:57;98068.25;;;14.69;43.33
63321;BME280;49449;48.800;9.534;2023-05-21T03:47:25;98062.94;;;14.69;43.55
63321;BME280;49449;48.800;9.534;2023-05-21T03:49:53;98064.53;;;14.70;43.41
63321;BME280;49449;48.800;9.534;2023-05-21T03:52:21;98071.44;;;14.66;43.29
63321;BME280;49449;48.800;9.534;2023-05-21T03:54:50;98078.34;;;14.62;43.47
63321;BME280;49449;48.800;9.534;2023-05-21T03:57:17;98087.13;;;14.57;43.52
63321;BME280;49449;48.800;9.534;2023-05-21T03:59:45;98089.25;;;14.55;43.54
63321;BME280;49449;48.800;9.534;2023-05-21T04:02:13;98081.81;;;14.52;43.46
63321;BME280;49449;48.800;9.534;2023-05-21T04:04:41;98085.72;;;14.44;44.09
63321;BME280;49449;48.800;9.534;2023-05-21T04:07:10;98082.03;;;14.40;43.82
63321;BME280;49449;48.800;9.534;2023-05-21T04:09:41;98090.00;;;14.40;43.95
63321;BME280;49449;48.800;9.534;2023-05-21T04:12:10;98094.00;;;14.37;44.34
63321;BME280;49449;48.800;9.534;2023-05-21T04:14:38;98095.28;;;14.35;44.33
63321;BME280;49449;48.800;9.534;2023-05-21T04:17:05;98101.41;;;14.30;44.17
63321;BME280;49449;48.800;9.534;2023-05-21T04:19:34;98101.41;;;14.30;44.19
63321;BME280;49449;48.800;9.534;2023-05-21T04:22:02;98103.81;;;14.32;44.17
63321;BME280;49449;48.800;9.534;2023-05-21T04:24:30;98097.94;;;14.35;44.10
63321;BME280;49449;48.800;9.534;2023-05-21T04:26:57;98106.22;;;14.44;44.10
63321;BME280;49449;48.800;9.534;2023-05-21T04:29:28;98105.19;;;14.50;43.91
63321;BME280;49449;48.800;9.534;2023-05-21T04:31:56;98103.34;;;14.55;43.91
63321;BME280;49449;48.800;9.534;2023-05-21T04:34:23;98107.31;;;14.58;43.85
63321;BME280;49449;48.800;9.534;2023-05-21T04:36:51;98105.75;;;14.57;43.77
63321;BME280;49449;48.800;9.534;2023-05-21T04:39:19;98108.13;;;14.58;43.58
63321;BME280;49449;48.800;9.534;2023-05-21T04:41:47;98112.63;;;14.58;43.71
63321;BME280;49449;48.800;9.534;2023-05-21T04:44:16;98117.69;;;14.59;44.01
63321;BME280;49449;48.800;9.534;2023-05-21T04:46:45;98118.22;;;14.62;44.04
63321;BME280;49449;48.800;9.534;2023-05-21T04:49:14;98107.59;;;14.67;43.73
63321;BME280;49449;48.800;9.534;2023-05-21T04:51:42;98111.34;;;14.71;43.72
63321;BME280;49449;48.800;9.534;2023-05-21T04:54:09;98120.38;;;14.75;43.67
63321;BME280;49449;48.800;9.534;2023-05-21T04:56:37;98120.63;;;14.78;43.32
63321;BME280;49449;48.800;9.534;2023-05-21T04:59:05;98116.94;;;14.80;43.51
63321;BME280;49449;48.800;9.534;2023-05-21T05:01:33;98111.06;;;14.83;43.53
63321;BME280;49449;48.800;9.534;2023-05-21T05:04:02;98120.38;;;14.75;43.80
63321;BME280;49449;48.800;9.534;2023-05-21T05:06:30;98117.19;;;14.68;43.57
63321;BME280;49449;48.800;9.534;2023-05-21T05:08:58;98120.63;;;14.68;43.53
63321;BME280;49449;48.800;9.534;2023-05-21T05:11:26;98129.97;;;14.76;43.67
63321;BME280;49449;48.800;9.534;2023-05-21T05:13:54;98133.41;;;14.82;43.28
63321;BME280;49449;48.800;9.534;2023-05-21T05:16:21;98135.00;;;14.88;43.66
63321;BME280;49449;48.800;9.534;2023-05-21T05:18:51;98122.78;;;14.92;43.57
63321;BME280;49449;48.800;9.534;2023-05-21T05:21:21;98128.38;;;14.95;43.65
63321;BME280;49449;48.800;9.534;2023-05-21T05:23:49;98124.88;;;15.00;43.31
63321;BME280;49449;48.800;9.534;2023-05-21T05:26:17;98128.91;;;15.03;43.43
63321;BME280;49449;48.800;9.534;2023-05-21T05:28:45;98127.81;;;15.04;43.20
63321;BME280;49449;48.800;9.534;2023-05-21T05:31:13;98128.06;;;15.07;43.19
63321;BME280;49449;48.800;9.534;2023-05-21T05:33:41;98126.50;;;15.11;43.46
63321;BME280;49449;48.800;9.534;2023-05-21T05:36:09;98121.19;;;15.17;43.27
63321;BME280;49449;48.800;9.534;2023-05-21T05:38:38;98122.22;;;15.21;43.44
63321;BME280;49449;48.800;9.534;2023-05-21T05:41:06;98123.53;;;15.23;42.98
63321;BME280;49449;48.800;9.534;2023-05-21T05:43:33;98117.94;;;15.25;43.13
63321;BME280;49449;48.800;9.534;2023-05-21T05:46:01;98120.13;;;15.28;43.41
63321;BME280;49449;48.800;9.534;2023-05-21T05:48:29;98115.56;;;15.33;43.29
63321;BME280;49449;48.800;9.534;2023-05-21T05:50:57;98113.69;;;15.39;42.95
63321;BME280;49449;48.800;9.534;2023-05-21T05:53:25;98114.50;;;15.45;43.13
63321;BME280;49449;48.800;9.534;2023-05-21T05:55:54;98119.53;;;15.51;42.98
63321;BME280;49449;48.800;9.534;2023-05-21T05:58:22;98113.41;;;15.56;42.74
63321;BME280;49449;48.800;9.534;2023-05-21T06:00:49;98126.69;;;15.61;42.92
63321;BME280;49449;48.800;9.534;2023-05-21T06:03:17;98128.53;;;15.66;42.77
63321;BME280;49449;48.800;9.534;2023-05-21T06:05:45;98122.94;;;15.67;42.68
63321;BME280;49449;48.800;9.534;2023-05-21T06:08:13;98126.13;;;15.75;42.54
63321;BME280;49449;48.800;9.534;2023-05-21T06:10:41;98126.34;;;15.83;42.61
63321;BME280;49449;48.800;9.534;2023-05-21T06:13:10;98122.63;;;15.89;42.33
63321;BME280;49449;48.800;9.534;2023-05-21T06:15:38;98119.66;;;15.96;42.20
63321;BME280;49449;48.800;9.534;2023-05-21T06:18:08;98121.25;;;15.97;42.17
63321;BME280;49449;48.800;9.534;2023-05-21T06:20:36;98123.63;;;16.09;42.05
63321;BME280;49449;48.800;9.534;2023-05-21T06:23:04;98122.19;;;16.27;42.07
63321;BME280;49449;48.800;9.534;2023-05-21T06:25:34;98122.94;;;16.38;41.79
63321;BME280;49449;48.800;9.534;2023-05-21T06:28:02;98120.47;;;16.46;41.46
63321;BME280;49449;48.800;9.534;2023-05-21T06:30:31;98117.25;;;16.55;41.39
63321;BME280;49449;48.800;9.534;2023-05-21T06:32:59;98121.69;;;16.64;40.99
63321;BME280;49449;48.800;9.534;2023-05-21T06:35:26;98122.13;;;16.77;40.91
63321;BME280;49449;48.800;9.534;2023-05-21T06:37:54;98112.44;;;16.91;40.89
63321;BME280;49449;48.800;9.534;2023-05-21T06:40:22;98119.31;;;17.02;40.65
63321;BME280;49449;48.800;9.534;2023-05-21T06:42:50;98111.44;;;17.16;40.53
63321;BME280;49449;48.800;9.534;2023-05-21T06:45:18;98120.97;;;17.22;40.29
63321;BME280;49449;48.800;9.534;2023-05-21T06:47:47;98115.88;;;17.26;40.18
63321;BME280;49449;48.800;9.534;2023-05-21T06:50:15;98119.50;;;17.35;40.27
63321;BME280;49449;48.800;9.534;2023-05-21T06:52:43;98122.13;;;17.40;40.24
63321;BME280;49449;48.800;9.534;2023-05-21T06:55:11;98120.78;;;17.43;40.37
63321;BME280;49449;48.800;9.534;2023-05-21T06:57:39;98121.84;;;17.42;40.17
63321;BME280;49449;48.800;9.534;2023-05-21T07:00:08;98125.47;;;17.56;40.17
63321;BME280;49449;48.800;9.534;2023-05-21T07:02:36;98126.69;;;17.69;40.32
63321;BME280;49449;48.800;9.534;2023-05-21T07:05:06;98124.91;;;17.84;40.26
63321;BME280;49449;48.800;9.534;2023-05-21T07:07:37;98122.97;;;17.89;39.74
63321;BME280;49449;48.800;9.534;2023-05-21T07:10:06;98123.13;;;17.98;39.77
63321;BME280;49449;48.800;9.534;2023-05-21T07:12:34;98129.16;;;18.09;39.35
63321;BME280;49449;48.800;9.534;2023-05-21T07:15:02;98134.66;;;18.17;39.28
63321;BME280;49449;48.800;9.534;2023-05-21T07:17:30;98132.38;;;18.30;38.97
63321;BME280;49449;48.800;9.534;2023-05-21T07:19:58;98131.66;;;18.43;38.94
63321;BME280;49449;48.800;9.534;2023-05-21T07:22:27;98136.28;;;18.57;37.81
63321;BME280;49449;48.800;9.534;2023-05-21T07:24:55;98130.28;;;18.65;37.19
63321;BME280;49449;48.800;9.534;2023-05-21T07:27:22;98112.41;;;18.79;37.53
63321;BME280;49449;48.800;9.534;2023-05-21T07:29:51;98114.91;;;18.89;36.92
63321;BME280;49449;48.800;9.534;2023-05-21T07:32:19;98128.16;;;19.00;37.29
63321;BME280;49449;48.800;9.534;2023-05-21T07:34:47;98125.72;;;19.17;35.83
63321;BME280;49449;48.800;9.534;2023-05-21T07:37:15;98125.53;;;19.27;35.77
63321;BME280;49449;48.800;9.534;2023-05-21T07:39:45;98125.94;;;19.35;35.86
63321;BME280;49449;48.800;9.534;2023-05-21T07:42:13;98112.44;;;19.40;35.39
63321;BME280;49449;48.800;9.534;2023-05-21T07:44:41;98113.97;;;19.46;34.89
63321;BME280;49449;48.800;9.534;2023-05-21T07:47:08;98118.41;;;19.51;35.19
63321;BME280;49449;48.800;9.534;2023-05-21T07:49:36;98117.13;;;19.48;34.82
63321;BME280;49449;48.800;9.534;2023-05-21T07:52:05;98124.19;;;19.58;35.20
63321;BME280;49449;48.800;9.534;2023-05-21T07:54:33;98116.06;;;19.63;35.02
63321;BME280;49449;48.800;9.534;2023-05-21T07:57:02;98119.47;;;19.69;34.39
63321;BME280;49449;48.800;9.534;2023-05-21T07:59:30;98120.13;;;19.60;33.73
63321;BME280;49449;48.800;9.534;2023-05-21T08:01:59;98112.16;;;19.55;33.64
63321;BME280;49449;48.800;9.534;2023-05-21T08:04:26;98113.59;;;19.66;33.70
63321;BME280;49449;48.800;9.534;2023-05-21T08:06:54;98114.19;;;19.77;33.44
63321;BME280;49449;48.800;9.534;2023-05-21T08:09:22;98114.97;;;19.92;33.11
63321;BME280;49449;48.800;9.534;2023-05-21T08:11:50;98115.56;;;20.02;32.78
63321;BME280;49449;48.800;9.534;2023-05-21T08:14:19;98113.56;;;20.08;32.66
63321;BME280;49449;48.800;9.534;2023-05-21T08:16:47;98109.44;;;20.24;32.01
63321;BME280;49449;48.800;9.534;2023-05-21T08:19:14;98109.53;;;20.33;31.46
63321;BME280;49449;48.800;9.534;2023-05-21T08:21:42;98117.75;;;20.51;32.27
63321;BME280;49449;48.800;9.534;2023-05-21T08:24:10;98113.50;;;20.50;31.63
63321;BME280;49449;48.800;9.534;2023-05-21T08:26:38;98115.28;;;20.40;31.20
63321;BME280;49449;48.800;9.534;2023-05-21T08:29:06;98120.00;;;20.57;31.11
63321;BME280;49449;48.800;9.534;2023-05-21T08:31:35;98114.34;;;20.59;30.84
63321;BME280;49449;48.800;9.534;2023-05-21T08:34:02;98117.28;;;20.71;31.23
63321;BME280;49449;48.800;9.534;2023-05-21T08:36:30;98114.47;;;20.76;30.84
63321;BME280;49449;48.800;9.534;2023-05-21T08:38:58;98123.38;;;20.63;30.82
63321;BME280;49449;48.800;9.534;2023-05-21T08:41:27;98114.81;;;20.61;31.11
63321;BME280;49449;48.800;9.534;2023-05-21T08:44:00;98124.28;;;20.81;30.96
63321;BME280;49449;48.800;9.534;2023-05-21T08:46:31;98114.00;;;20.74;30.79
63321;BME280;49449;48.800;9.534;2023-05-21T08:49:02;98110.09;;;21.03;30.86
63321;BME280;49449;48.800;9.534;2023-05-21T08:51:30;98112.50;;;21.13;30.92
63321;BME280;49449;48.800;9.534;2023-05-21T08:53:58;98112.44;;;21.27;29.32
63321;BME280;49449;48.800;9.534;2023-05-21T08:56:30;98108.66;;;21.37;29.92
63321;BME280;49449;48.800;9.534;2023-05-21T08:58:58;98111.56;;;21.49;30.20
63321;BME280;49449;48.800;9.534;2023-05-21T09:01:26;98108.81;;;21.72;30.40
63321;BME280;49449;48.800;9.534;2023-05-21T09:03:55;98105.19;;;21.68;29.05
63321;BME280;49449;48.800;9.534;2023-05-21T09:06:26;98105.69;;;21.79;29.26
63321;BME280;49449;48.800;9.534;2023-05-21T09:08:58;98110.94;;;21.92;29.41
63321;BME280;49449;48.800;9.534;2023-05-21T09:11:30;98114.75;;;22.09;29.44
63321;BME280;49449;48.800;9.534;2023-05-21T09:13:59;98116.84;;;22.12;29.09
63321;BME280;49449;48.800;9.534;2023-05-21T09:16:27;98120.44;;;22.07;29.04
63321;BME280;49449;48.800;9.534;2023-05-21T09:18:55;98115.06;;;22.07;29.10
63321;BME280;49449;48.800;9.534;2023-05-21T09:21:24;98120.13;;;22.09;29.08
63321;BME280;49449;48.800;9.534;2023-05-21T09:23:55;98121.19;;;21.90;28.90
63321;BME280;49449;48.800;9.534;2023-05-21T09:26:23;98116.78;;;21.95;29.09
63321;BME280;49449;48.800;9.534;2023-05-21T09:28:56;98123.44;;;22.06;28.74
63321;BME280;49449;48.800;9.534;2023-05-21T09:31:32;98119.66;;;22.07;28.11
63321;BME280;49449;48.800;9.534;2023-05-21T09:34:00;98129.44;;;22.03;28.22
63321;BME280;49449;48.800;9.534;2023-05-21T09:36:28;98118.19;;;21.83;28.41
63321;BME280;49449;48.800;9.534;2023-05-21T09:38:55;98123.88;;;21.90;28.29
63321;BME280;49449;48.800;9.534;2023-05-21T09:41:30;98116.59;;;21.82;28.72
63321;BME280;49449;48.800;9.534;2023-05-21T09:43:58;98122.63;;;21.88;28.53
63321;BME280;49449;48.800;9.534;2023-05-21T09:46:26;98109.97;;;21.97;27.78
63321;BME280;49449;48.800;9.534;2023-05-21T09:48:55;98114.84;;;21.78;28.20
63321;BME280;49449;48.800;9.534;2023-05-21T09:51:23;98121.63;;;21.66;27.83
63321;BME280;49449;48.800;9.534;2023-05-21T09:53:53;98122.19;;;21.54;28.24
63321;BME280;49449;48.800;9.534;2023-05-21T09:56:24;98126.28;;;21.52;27.99
63321;BME280;49449;48.800;9.534;2023-05-21T09:58:52;98117.94;;;21.62;28.24
63321;BME280;49449;48.800;9.534;2023-05-21T10:01:21;98114.19;;;21.63;28.42
63321;BME280;49449;48.800;9.534;2023-05-21T10:03:53;98122.56;;;21.70;28.03
63321;BME280;49449;48.800;9.534;2023-05-21T10:06:25;98114.19;;;21.72;27.55
63321;BME280;49449;48.800;9.534;2023-05-21T10:08:54;98110.91;;;21.75;27.96
63321;BME280;49449;48.800;9.534;2023-05-21T10:11:25;98117.56;;;21.86;27.90
63321;BME280;49449;48.800;9.534;2023-05-21T10:13:57;98123.75;;;22.04;27.81
63321;BME280;49449;48.800;9.534;2023-05-21T10:16:29;98114.63;;;22.14;27.63
63321;BME280;49449;48.800;9.534;2023-05-21T10:18:59;98117.81;;;22.34;27.91
63321;BME280;49449;48.800;9.534;2023-05-21T10:21:29;98118.75;;;22.55;27.83
63321;BME280;49449;48.800;9.534;2023-05-21T10:23:57;98112.25;;;22.74;27.29
63321;BME280;49449;48.800;9.534;2023-05-21T10:26:25;98123.69;;;22.88;27.34
63321;BME280;49449;48.800;9.534;2023-05-21T10:28:55;98115.44;;;22.93;26.24
63321;BME280;49449;48.800;9.534;2023-05-21T10:31:25;98111.91;;;23.01;26.62
63321;BME280;49449;48.800;9.534;2023-05-21T10:33:54;98113.97;;;23.04;26.64
63321;BME280;49449;48.800;9.534;2023-05-21T10:36:22;98107.28;;;23.11;26.85
63321;BME280;49449;48.800;9.534;2023-05-21T10:38:52;98108.75;;;22.99;26.77
63321;BME280;49449;48.800;9.534;2023-05-21T10:41:21;98109.06;;;23.06;27.24
63321;BME280;49449;48.800;9.534;2023-05-21T10:43:55;98106.06;;;22.99;26.98
63321;BME280;49449;48.800;9.534;2023-05-21T10:49:40;98105.78;;;22.83;26.18
63321;BME280;49449;48.800;9.534;2023-05-21T10:52:22;98102.91;;;22.97;26.35
63321;BME280;49449;48.800;9.534;2023-05-21T10:55:00;98103.56;;;22.77;26.50
63321;BME280;49449;48.800;9.534;2023-05-21T10:58:01;98098.94;;;22.86;26.27
63321;BME280;49449;48.800;9.534;2023-05-21T11:00:34;98099.06;;;23.07;26.08
63321;BME280;49449;48.800;9.534;2023-05-21T11:03:03;98094.16;;;23.09;25.85
63321;BME280;49449;48.800;9.534;2023-05-21T11:05:38;98096.06;;;23.00;26.49
63321;BME280;49449;48.800;9.534;2023-05-21T11:08:23;98090.19;;;23.06;25.38
63321;BME280;49449;48.800;9.534;2023-05-21T11:10:53;98088.44;;;23.11;24.93
63321;BME280;49449;48.800;9.534;2023-05-21T11:13:23;98091.44;;;23.18;24.90
63321;BME280;49449;48.800;9.534;2023-05-21T11:16:05;98090.31;;;23.19;24.79
63321;BME280;49449;48.800;9.534;2023-05-21T11:19:01;98099.59;;;22.92;26.08
63321;BME280;49449;48.800;9.534;2023-05-21T11:21:30;98087.78;;;23.14;25.58
63321;BME280;49449;48.800;9.534;2023-05-21T11:24:00;98089.00;;;23.34;25.47
63321;BME280;49449;48.800;9.534;2023-05-21T11:27:00;98085.22;;;23.26;25.90
63321;BME280;49449;48.800;9.534;2023-05-21T11:29:43;98082.22;;;23.19;26.11
63321;BME280;49449;48.800;9.534;2023-05-21T11:32:13;98090.56;;;22.79;26.62
63321;BME280;49449;48.800;9.534;2023-05-21T11:34:43;98083.47;;;22.83;27.10
63321;BME280;49449;48.800;9.534;2023-05-21T11:37:23;98080.28;;;22.90;27.66
63321;BME280;49449;48.800;9.534;2023-05-21T11:39:56;98074.34;;;23.05;27.14
63321;BME280;49449;48.800;9.534;2023-05-21T11:42:32;98070.88;;;23.04;26.83
63321;BME280;49449;48.800;9.534;2023-05-21T11:45:01;98078.38;;;22.90;27.11
63321;BME280;49449;48.800;9.534;2023-05-21T11:47:30;98085.66;;;22.90;27.27
63321;BME280;49449;48.800;9.534;2023-05-21T11:49:59;98078.78;;;23.10;26.97
63321;BME280;49449;48.800;9.534;2023-05-21T11:52:28;98072.72;;;23.21;26.77
63321;BME280;49449;48.800;9.534;2023-05-21T11:54:57;98081.31;;;23.15;27.53
63321;BME280;49449;48.800;9.534;2023-05-21T11:57:26;98083.38;;;23.18;26.88
63321;BME280;49449;48.800;9.534;2023-05-21T11:59:59;98084.59;;;23.20;26.36
63321;BME280;49449;48.800;9.534;2023-05-21T12:02:29;98081.19;;;23.02;27.03
63321;BME280;49449;48.800;9.534;2023-05-21T12:04:57;98085.22;;;23.26;26.58
63321;BME280;49449;48.800;9.534;2023-05-21T12:07:27;98085.97;;;23.44;26.61
63321;BME280;49449;48.800;9.534;2023-05-21T12:09:55;98073.28;;;23.45;26.65
63321;BME280;49449;48.800;9.534;2023-05-21T12:12:25;98074.25;;;23.31;26.24
63321;BME280;49449;48.800;9.534;2023-05-21T12:14:57;98077.28;;;23.38;26.24
63321;BME280;49449;48.800;9.534;2023-05-21T12:17:26;98076.06;;;23.18;26.19
63321;BME280;49449;48.800;9.534;2023-05-21T12:19:57;98078.59;;;23.23;25.93
63321;BME280;49449;48.800;9.534;2023-05-21T12:22:25;98084.44;;;23.34;25.03
63321;BME280;49449;48.800;9.534;2023-05-21T12:24:53;98078.41;;;23.29;24.75
63321;BME280;49449;48.800;9.534;2023-05-21T12:27:23;98083.41;;;23.00;25.05
63321;BME280;49449;48.800;9.534;2023-05-21T12:29:53;98086.56;;;23.11;25.75
63321;BME280;49449;48.800;9.534;2023-05-21T12:32:34;98078.81;;;23.01;25.61
63321;BME280;49449;48.800;9.534;2023-05-21T12:35:04;98082.28;;;23.01;26.10
63321;BME280;49449;48.800;9.534;2023-05-21T12:37:32;98081.19;;;23.02;25.39
63321;BME280;49449;48.800;9.534;2023-05-21T12:40:02;98075.44;;;23.21;25.67
63321;BME280;49449;48.800;9.534;2023-05-21T12:42:33;98077.13;;;23.26;25.98
63321;BME280;49449;48.800;9.534;2023-05-21T12:45:06;98077.47;;;23.16;26.04
63321;BME280;49449;48.800;9.534;2023-05-21T12:47:35;98084.34;;;23.04;25.37
63321;BME280;49449;48.800;9.534;2023-05-21T12:50:07;98075.22;;;22.88;25.80
63321;BME280;49449;48.800;9.534;2023-05-21T12:52:38;98076.75;;;22.98;25.99
63321;BME280;49449;48.800;9.534;2023-05-21T12:55:08;98085.44;;;23.03;25.73
63321;BME280;49449;48.800;9.534;2023-05-21T12:57:37;98081.13;;;23.20;26.14
63321;BME280;49449;48.800;9.534;2023-05-21T13:00:06;98079.66;;;23.31;25.88
63321;BME280;49449;48.800;9.534;2023-05-21T13:02:39;98077.75;;;23.32;26.28
63321;BME280;49449;48.800;9.534;2023-05-21T13:05:09;98073.81;;;23.29;25.66
63321;BME280;49449;48.800;9.534;2023-05-21T13:07:38;98074.19;;;23.01;25.74
63321;BME280;49449;48.800;9.534;2023-05-21T13:10:07;98080.16;;;23.24;25.97
63321;BME280;49449;48.800;9.534;2023-05-21T13:12:35;98078.41;;;23.29;26.14
63321;BME280;49449;48.800;9.534;2023-05-21T13:15:04;98073.97;;;23.24;25.79